Time;durP1;ratioP1;P1;durP2;ratioP2;P2;SDS_P1;SDS_P2;PMS_P1;PMS_P2;Temp;Humidity;BMP_temperature;BMP_pressure;BME280_temperature;BME280_humidity;BME280_pressure;Samples;Min_cycle;Max_cycle;Signal;HPM_P1;HPM_P2
2022/12/03 00:01:21;;;;;;;;;56.33;42.67;;;;;;;;5100911;28;11545;-81
2022/12/03 00:03:49;;;;;;;;;63.67;49.67;;;;;;;;5101596;28;11587;-83
2022/12/03 00:06:16;;;;;;;;;69.33;57.33;;;;;;;;5106256;28;8869;-83
2022/12/03 00:08:44;;;;;;;;;55.33;44.00;;;;;;;;5100528;28;8847;-83
2022/12/03 00:11:13;;;;;;;;;70.33;51.67;;;;;;;;5105341;28;8862;-84
2022/12/03 00:13:41;;;;;;;;;67.67;51.67;;;;;;;;5106011;27;11631;-82
2022/12/03 00:16:09;;;;;;;;;63.33;51.00;;;;;;;;5106436;28;11677;-84
2022/12/03 00:18:37;;;;;;;;;69.33;54.67;;;;;;;;5105884;27;11534;-83
2022/12/03 00:21:05;;;;;;;;;61.33;44.33;;;;;;;;5104391;27;8834;-82
2022/12/03 00:23:32;;;;;;;;;70.00;50.00;;;;;;;;5105135;28;11545;-83
2022/12/03 00:26:00;;;;;;;;;61.67;48.67;;;;;;;;5104812;28;11563;-83
2022/12/03 00:28:29;;;;;;;;;64.33;49.00;;;;;;;;5105349;27;11530;-83
2022/12/03 00:30:57;;;;;;;;;66.33;51.67;;;;;;;;5105484;27;11556;-83
2022/12/03 00:33:25;;;;;;;;;60.67;46.67;;;;;;;;5098932;27;11543;-83
2022/12/03 00:35:53;;;;;;;;;61.67;49.67;;;;;;;;5082503;28;11660;-82
2022/12/03 00:38:21;;;;;;;;;65.67;52.00;;;;;;;;5104673;27;11703;-83
2022/12/03 00:40:49;;;;;;;;;58.00;46.67;;;;;;;;5105511;28;12384;-82
2022/12/03 00:43:18;;;;;;;;;54.67;47.00;;;;;;;;5095799;28;11669;-83
2022/12/03 00:45:47;;;;;;;;;63.33;50.33;;;;;;;;5104642;28;11686;-83
2022/12/03 00:48:14;;;;;;;;;69.67;55.00;;;;;;;;5095404;28;11571;-82
2022/12/03 00:50:42;;;;;;;;;67.00;51.00;;;;;;;;5100021;28;11680;-83
2022/12/03 00:53:10;;;;;;;;;55.00;45.67;;;;;;;;5104705;28;11686;-82
2022/12/03 00:55:37;;;;;;;;;57.00;38.33;;;;;;;;5097507;28;11512;-82
2022/12/03 00:58:07;;;;;;;;;63.00;47.33;;;;;;;;5102952;28;11678;-82
2022/12/03 01:00:34;;;;;;;;;64.67;49.00;;;;;;;;5104924;28;11551;-82
2022/12/03 01:03:04;;;;;;;;;60.00;46.67;;;;;;;;5104554;28;11718;-82
2022/12/03 01:05:31;;;;;;;;;67.33;51.33;;;;;;;;5097748;28;11519;-82
2022/12/03 01:07:59;;;;;;;;;63.67;46.33;;;;;;;;5105133;28;11683;-82
2022/12/03 01:10:26;;;;;;;;;55.67;44.67;;;;;;;;5104746;28;11631;-83
2022/12/03 01:12:53;;;;;;;;;60.25;46.75;;;;;;;;5104458;28;11557;-83
2022/12/03 01:15:21;;;;;;;;;56.33;47.00;;;;;;;;5098431;28;11584;-81
2022/12/03 01:17:49;;;;;;;;;57.67;47.00;;;;;;;;5105090;27;11521;-82
2022/12/03 01:20:18;;;;;;;;;55.00;44.67;;;;;;;;5104303;27;11556;-81
2022/12/03 01:22:45;;;;;;;;;53.25;44.00;;;;;;;;5095675;27;11684;-82
2022/12/03 01:25:13;;;;;;;;;57.75;44.25;;;;;;;;5105550;28;11550;-82
2022/12/03 01:27:40;;;;;;;;;54.00;42.00;;;;;;;;5105290;28;11694;-82
2022/12/03 01:30:09;;;;;;;;;60.75;45.75;;;;;;;;5106546;27;11500;-83
2022/12/03 01:32:35;;;;;;;;;58.50;44.00;;;;;;;;5104528;28;11540;-82
2022/12/03 01:35:02;;;;;;;;;60.00;41.00;;;;;;;;5104349;28;11544;-83
2022/12/03 01:37:32;;;;;;;;;63.00;47.00;;;;;;;;5099779;28;11674;-82
2022/12/03 01:39:59;;;;;;;;;60.50;47.00;;;;;;;;5103091;28;11612;-82
2022/12/03 01:42:29;;;;;;;;;50.25;45.00;;;;;;;;5104103;28;11611;-83
2022/12/03 01:44:58;;;;;;;;;60.75;49.25;;;;;;;;5095411;27;11533;-83
2022/12/03 01:47:30;;;;;;;;;50.75;41.75;;;;;;;;5102982;28;11633;-82
2022/12/03 01:50:02;;;;;;;;;60.75;47.25;;;;;;;;5103200;28;12397;-83
2022/12/03 01:52:33;;;;;;;;;37.50;32.00;;;;;;;;5104634;28;11572;-83
2022/12/03 01:55:03;;;;;;;;;55.75;48.25;;;;;;;;5095894;28;11556;-83
2022/12/03 01:57:42;;;;;;;;;61.75;51.25;;;;;;;;5103234;28;11635;-83
2022/12/03 02:00:14;;;;;;;;;41.50;40.25;;;;;;;;5102602;28;11547;-83
2022/12/03 02:02:42;;;;;;;;;50.75;40.25;;;;;;;;5102207;28;11549;-83
2022/12/03 02:05:17;;;;;;;;;50.50;43.25;;;;;;;;5105940;27;11574;-82
2022/12/03 02:07:46;;;;;;;;;49.00;42.00;;;;;;;;5106679;28;11578;-82
2022/12/03 02:10:15;;;;;;;;;48.00;40.00;;;;;;;;5097113;28;11587;-82
2022/12/03 02:12:46;;;;;;;;;49.50;42.50;;;;;;;;5106213;27;11621;-83
2022/12/03 02:15:13;;;;;;;;;40.00;36.25;;;;;;;;5100900;28;11665;-83
2022/12/03 02:17:41;;;;;;;;;52.00;41.50;;;;;;;;5108617;27;11636;-82
2022/12/03 02:20:11;;;;;;;;;45.75;36.50;;;;;;;;5106326;27;11648;-82
2022/12/03 02:22:47;;;;;;;;;53.33;44.00;;;;;;;;5100327;28;11608;-82
2022/12/03 02:25:18;;;;;;;;;54.50;43.25;;;;;;;;5106536;27;11624;-82
2022/12/03 02:27:46;;;;;;;;;57.75;43.75;;;;;;;;5107688;27;11584;-82
2022/12/03 02:30:16;;;;;;;;;44.50;42.50;;;;;;;;5108048;27;11539;-82
2022/12/03 02:32:44;;;;;;;;;45.25;41.25;;;;;;;;5107325;27;11548;-82
2022/12/03 02:35:16;;;;;;;;;60.67;47.33;;;;;;;;5107724;28;11582;-83
2022/12/03 02:37:46;;;;;;;;;53.00;44.00;;;;;;;;5106449;28;11627;-82
2022/12/03 02:40:18;;;;;;;;;50.67;44.00;;;;;;;;5079592;28;11653;-83
2022/12/03 02:42:46;;;;;;;;;62.00;44.75;;;;;;;;5101987;28;11710;-82
2022/12/03 02:45:17;;;;;;;;;53.75;41.25;;;;;;;;5105115;28;11592;-83
2022/12/03 02:47:46;;;;;;;;;44.75;39.25;;;;;;;;5104910;27;11646;-82
2022/12/03 02:50:16;;;;;;;;;58.75;46.75;;;;;;;;5107239;27;11573;-83
2022/12/03 02:52:45;;;;;;;;;43.50;41.25;;;;;;;;5103577;28;11624;-83
2022/12/03 02:55:13;;;;;;;;;48.50;42.75;;;;;;;;5098662;28;11635;-83
2022/12/03 02:57:44;;;;;;;;;47.00;42.25;;;;;;;;5099223;27;11629;-83
2022/12/03 03:00:12;;;;;;;;;50.00;41.75;;;;;;;;5107199;28;11534;-83
2022/12/03 03:02:41;;;;;;;;;50.00;41.00;;;;;;;;5107667;27;11538;-82
2022/12/03 03:05:10;;;;;;;;;49.00;38.50;;;;;;;;5107251;28;11653;-83
2022/12/03 03:07:39;;;;;;;;;50.25;40.25;;;;;;;;5107914;27;11674;-82
2022/12/03 03:10:10;;;;;;;;;48.00;40.50;;;;;;;;5099116;28;12343;-83
2022/12/03 03:12:38;;;;;;;;;49.00;43.75;;;;;;;;5110310;27;11507;-82
2022/12/03 03:15:09;;;;;;;;;30.75;30.00;;;;;;;;5107208;28;11530;-83
2022/12/03 03:17:37;;;;;;;;;49.75;41.00;;;;;;;;5105605;28;11526;-82
2022/12/03 03:20:06;;;;;;;;;45.50;38.75;;;;;;;;5101354;28;11559;-84
2022/12/03 03:22:34;;;;;;;;;51.75;42.00;;;;;;;;5106773;28;11670;-83
2022/12/03 03:25:01;;;;;;;;;48.00;39.25;;;;;;;;5096918;28;11530;-83
2022/12/03 03:27:29;;;;;;;;;61.50;46.50;;;;;;;;5107248;28;12399;-82
2022/12/03 03:29:58;;;;;;;;;46.75;39.25;;;;;;;;5107223;28;11553;-83
2022/12/03 03:32:28;;;;;;;;;52.75;42.75;;;;;;;;5099884;28;11695;-83
2022/12/03 03:34:55;;;;;;;;;52.25;43.25;;;;;;;;5107585;28;11625;-83
2022/12/03 03:37:23;;;;;;;;;41.25;38.75;;;;;;;;5107489;28;11654;-83
2022/12/03 03:39:52;;;;;;;;;49.75;41.75;;;;;;;;5101621;28;11647;-87
2022/12/03 03:42:19;;;;;;;;;51.50;41.50;;;;;;;;5097489;27;11585;-82
2022/12/03 03:44:48;;;;;;;;;43.00;38.25;;;;;;;;5104732;28;11644;-82
2022/12/03 03:47:17;;;;;;;;;49.50;41.25;;;;;;;;5105372;28;11547;-83
2022/12/03 03:49:46;;;;;;;;;47.75;43.25;;;;;;;;5105394;28;11629;-82
2022/12/03 03:52:15;;;;;;;;;36.75;36.75;;;;;;;;5103633;27;11564;-83
2022/12/03 03:54:43;;;;;;;;;43.75;36.50;;;;;;;;5102115;28;11624;-84
2022/12/03 03:57:11;;;;;;;;;43.00;36.75;;;;;;;;5107711;28;11612;-83
2022/12/03 03:59:38;;;;;;;;;39.00;37.50;;;;;;;;5107058;28;11539;-84
2022/12/03 04:02:06;;;;;;;;;46.75;41.00;;;;;;;;5106686;28;11569;-84
2022/12/03 04:04:36;;;;;;;;;39.00;33.50;;;;;;;;5105043;27;11647;-83
2022/12/03 04:07:06;;;;;;;;;36.50;29.00;;;;;;;;5107232;27;11536;-84
2022/12/03 04:09:33;;;;;;;;;42.50;38.00;;;;;;;;5094584;28;11641;-82
2022/12/03 04:14:46;;;;;;;;;43.00;36.50;;;;;;;;5105905;28;11654;-83
2022/12/03 04:17:16;;;;;;;;;36.25;33.50;;;;;;;;5107191;28;11619;-82
2022/12/03 04:19:43;;;;;;;;;39.75;31.00;;;;;;;;5107304;28;11660;-82
2022/12/03 04:30:23;;;;;;;;;50.25;39.75;;;;;;;;5103309;28;11522;-83
2022/12/03 04:35:42;;;;;;;;;35.25;32.25;;;;;;;;5106648;28;11542;-83
2022/12/03 04:38:13;;;;;;;;;41.25;36.00;;;;;;;;5099490;28;11625;-82
2022/12/03 04:43:26;;;;;;;;;40.00;34.50;;;;;;;;5103147;28;11528;-83
2022/12/03 04:45:54;;;;;;;;;33.00;31.75;;;;;;;;5106940;28;11523;-83
2022/12/03 04:48:25;;;;;;;;;41.75;37.75;;;;;;;;5104043;28;11537;-83
2022/12/03 04:50:53;;;;;;;;;43.50;40.00;;;;;;;;5106908;27;12312;-83
2022/12/03 04:53:23;;;;;;;;;34.50;27.50;;;;;;;;5102600;28;11689;-83
2022/12/03 04:55:51;;;;;;;;;32.25;30.00;;;;;;;;5105781;28;11514;-83
2022/12/03 04:58:19;;;;;;;;;46.00;35.75;;;;;;;;5093953;28;11569;-82
2022/12/03 05:00:46;;;;;;;;;42.75;36.00;;;;;;;;5108091;28;11615;-82
2022/12/03 05:03:14;;;;;;;;;38.75;37.75;;;;;;;;5105740;28;11522;-83
2022/12/03 05:05:41;;;;;;;;;41.25;37.75;;;;;;;;5104513;28;11626;-82
2022/12/03 05:08:09;;;;;;;;;44.00;31.25;;;;;;;;5110129;27;11540;-82
2022/12/03 05:10:38;;;;;;;;;34.25;27.00;;;;;;;;5105790;27;11538;-83
2022/12/03 05:13:06;;;;;;;;;35.75;33.75;;;;;;;;5097704;28;12198;-81
2022/12/03 05:15:33;;;;;;;;;40.75;31.50;;;;;;;;5101334;28;11665;-82
2022/12/03 05:18:01;;;;;;;;;37.00;36.25;;;;;;;;5103608;28;11539;-82
2022/12/03 05:20:44;;;;;;;;;43.00;34.75;;;;;;;;5104773;27;12317;-82
2022/12/03 05:23:13;;;;;;;;;35.50;35.50;;;;;;;;5105305;28;11549;-82
2022/12/03 05:25:42;;;;;;;;;40.50;35.00;;;;;;;;5106275;28;11550;-82
2022/12/03 05:28:10;;;;;;;;;35.50;33.00;;;;;;;;5097994;28;11533;-82
2022/12/03 05:30:39;;;;;;;;;27.50;26.25;;;;;;;;5104234;27;11603;-82
2022/12/03 05:33:06;;;;;;;;;36.50;36.00;;;;;;;;5104058;28;11538;-82
2022/12/03 05:35:35;;;;;;;;;27.75;27.75;;;;;;;;5106151;27;11522;-82
2022/12/03 05:38:03;;;;;;;;;47.50;35.25;;;;;;;;5103788;28;11668;-83
2022/12/03 05:40:31;;;;;;;;;37.00;32.25;;;;;;;;5103296;28;11693;-82
2022/12/03 05:43:00;;;;;;;;;47.75;42.00;;;;;;;;5099943;28;11548;-82
2022/12/03 05:45:30;;;;;;;;;44.00;38.50;;;;;;;;5096643;28;11530;-82
2022/12/03 05:47:59;;;;;;;;;35.75;33.25;;;;;;;;5103594;27;11554;-82
2022/12/03 05:50:30;;;;;;;;;31.00;31.00;;;;;;;;5104087;28;11581;-81
2022/12/03 05:52:58;;;;;;;;;43.25;40.50;;;;;;;;5098879;28;11548;-83
2022/12/03 05:55:26;;;;;;;;;46.00;34.75;;;;;;;;5106022;28;11570;-83
2022/12/03 05:57:53;;;;;;;;;39.00;35.25;;;;;;;;5104577;28;11623;-82
2022/12/03 06:00:25;;;;;;;;;47.00;38.50;;;;;;;;5104542;28;11529;-82
2022/12/03 06:02:54;;;;;;;;;35.00;28.75;;;;;;;;5103073;28;11554;-83
2022/12/03 06:05:23;;;;;;;;;32.25;24.75;;;;;;;;5103412;28;11561;-83
2022/12/03 06:07:52;;;;;;;;;33.50;29.00;;;;;;;;5102618;28;11570;-82
2022/12/03 06:10:21;;;;;;;;;41.25;37.25;;;;;;;;5103882;28;12357;-80
2022/12/03 06:12:49;;;;;;;;;45.25;39.00;;;;;;;;5104717;28;11597;-79
2022/12/03 06:15:18;;;;;;;;;37.50;35.75;;;;;;;;5104233;28;11675;-80
2022/12/03 06:17:49;;;;;;;;;47.75;40.50;;;;;;;;5103480;28;11685;-82
2022/12/03 06:20:19;;;;;;;;;31.50;29.50;;;;;;;;5098881;27;11646;-82
2022/12/03 06:22:47;;;;;;;;;33.25;30.75;;;;;;;;5102282;28;11575;-82
2022/12/03 06:25:15;;;;;;;;;27.50;25.75;;;;;;;;5102975;27;11643;-82
2022/12/03 06:27:43;;;;;;;;;43.25;34.75;;;;;;;;5103627;28;11641;-82
2022/12/03 06:30:13;;;;;;;;;30.50;29.25;;;;;;;;5102467;28;11534;-82
2022/12/03 06:32:41;;;;;;;;;39.00;31.50;;;;;;;;5100117;28;11552;-82
2022/12/03 06:35:11;;;;;;;;;44.00;36.50;;;;;;;;5100845;28;11633;-81
2022/12/03 06:37:39;;;;;;;;;39.00;34.50;;;;;;;;5100936;28;11664;-81
2022/12/03 06:40:19;;;;;;;;;30.00;27.50;;;;;;;;5097119;28;11608;-82
2022/12/03 06:42:47;;;;;;;;;34.00;28.75;;;;;;;;5100536;28;11569;-83
2022/12/03 06:45:15;;;;;;;;;46.50;34.75;;;;;;;;5101566;28;13593;-83
2022/12/03 06:47:43;;;;;;;;;48.25;31.00;;;;;;;;5098066;28;11545;-81
2022/12/03 06:50:12;;;;;;;;;33.50;29.50;;;;;;;;5105353;28;11698;-82
2022/12/03 06:52:40;;;;;;;;;32.25;28.25;;;;;;;;5099285;27;11632;-81
2022/12/03 06:55:09;;;;;;;;;35.00;30.00;;;;;;;;5104410;27;11636;-83
2022/12/03 06:57:38;;;;;;;;;34.25;31.75;;;;;;;;5104524;27;11575;-81
2022/12/03 07:00:08;;;;;;;;;37.00;32.75;;;;;;;;5095489;28;11587;-81
2022/12/03 07:02:38;;;;;;;;;37.75;35.00;;;;;;;;5117358;27;11572;-80
2022/12/03 07:05:08;;;;;;;;;43.25;33.00;;;;;;;;5114835;27;11553;-81
2022/12/03 07:07:55;;;;;;;;;42.75;33.00;;;;;;;;5102916;27;11683;-84
2022/12/03 07:10:23;;;;;;;;;32.75;30.25;;;;;;;;5111925;27;12373;-84
2022/12/03 07:12:51;;;;;;;;;31.00;31.00;;;;;;;;5105030;28;11600;-83
2022/12/03 07:15:18;;;;;;;;;33.50;29.00;;;;;;;;5104207;28;11553;-82
2022/12/03 07:17:48;;;;;;;;;36.25;33.00;;;;;;;;5118231;27;11501;-86
2022/12/03 07:20:16;;;;;;;;;31.25;31.00;;;;;;;;5105100;27;11538;-78
2022/12/03 07:22:44;;;;;;;;;22.25;20.25;;;;;;;;5108279;28;11527;-81
2022/12/03 07:25:14;;;;;;;;;44.00;37.25;;;;;;;;5107505;28;11579;-83
2022/12/03 07:27:41;;;;;;;;;39.75;32.50;;;;;;;;5105934;27;11551;-80
2022/12/03 07:30:11;;;;;;;;;46.25;34.75;;;;;;;;5107347;28;11697;-80
2022/12/03 07:32:39;;;;;;;;;42.00;36.50;;;;;;;;5097837;28;11596;-80
2022/12/03 07:35:07;;;;;;;;;32.75;30.50;;;;;;;;5107945;27;11968;-81
2022/12/03 07:37:36;;;;;;;;;25.25;24.50;;;;;;;;5101454;27;12316;-81
2022/12/03 07:40:05;;;;;;;;;29.50;27.75;;;;;;;;5103133;27;12312;-80
2022/12/03 07:42:38;;;;;;;;;41.25;34.75;;;;;;;;5104071;28;11660;-81
2022/12/03 07:45:08;;;;;;;;;39.50;38.25;;;;;;;;5100132;28;12368;-83
2022/12/03 07:47:35;;;;;;;;;30.75;25.75;;;;;;;;5101608;28;11643;-82
2022/12/03 07:50:03;;;;;;;;;34.75;30.50;;;;;;;;5102050;28;11621;-84
2022/12/03 07:52:31;;;;;;;;;47.25;30.50;;;;;;;;5103500;28;12405;-83
2022/12/03 07:55:00;;;;;;;;;47.75;38.50;;;;;;;;5104771;28;11577;-80
2022/12/03 07:57:28;;;;;;;;;42.75;38.50;;;;;;;;5104536;28;11695;-79
2022/12/03 07:59:57;;;;;;;;;28.75;26.75;;;;;;;;5100841;28;11503;-81
2022/12/03 08:02:24;;;;;;;;;33.00;28.25;;;;;;;;5104907;27;12684;-82
2022/12/03 08:04:58;;;;;;;;;51.25;40.50;;;;;;;;5104529;27;11537;-81
2022/12/03 08:07:25;;;;;;;;;42.00;33.75;;;;;;;;5102492;28;11671;-80
2022/12/03 08:09:53;;;;;;;;;38.00;37.50;;;;;;;;5105676;28;13044;-83
2022/12/03 08:12:38;;;;;;;;;35.50;30.25;;;;;;;;5102711;27;11555;-80
2022/12/03 08:15:11;;;;;;;;;33.50;30.50;;;;;;;;5104056;28;11559;-79
2022/12/03 08:17:39;;;;;;;;;28.75;28.75;;;;;;;;5104182;28;11571;-78
2022/12/03 08:20:13;;;;;;;;;39.25;36.25;;;;;;;;5103908;28;11522;-78
2022/12/03 08:22:41;;;;;;;;;35.50;31.25;;;;;;;;5103578;28;12069;-79
2022/12/03 08:25:15;;;;;;;;;35.75;30.75;;;;;;;;5104048;27;11518;-80
2022/12/03 08:27:43;;;;;;;;;35.00;32.75;;;;;;;;5103229;28;11692;-80
2022/12/03 08:30:15;;;;;;;;;31.00;27.00;;;;;;;;5102715;28;11551;-81
2022/12/03 08:32:42;;;;;;;;;29.50;26.25;;;;;;;;5101785;27;11525;-76
2022/12/03 08:35:12;;;;;;;;;33.75;28.75;;;;;;;;5103728;28;11590;-75
2022/12/03 08:37:41;;;;;;;;;42.75;38.75;;;;;;;;5101853;28;11548;-75
2022/12/03 08:40:23;;;;;;;;;38.50;35.00;;;;;;;;5095664;28;11653;-75
2022/12/03 08:42:50;;;;;;;;;29.50;24.75;;;;;;;;5104812;28;11595;-76
2022/12/03 08:45:39;;;;;;;;;35.75;33.50;;;;;;;;5105562;28;11674;-76
2022/12/03 08:48:25;;;;;;;;;35.25;32.50;;;;;;;;5109537;27;11548;-78
2022/12/03 08:50:54;;;;;;;;;33.25;30.50;;;;;;;;5105048;28;11535;-76
2022/12/03 08:53:32;;;;;;;;;37.75;31.75;;;;;;;;5102845;27;11546;-76
2022/12/03 08:56:01;;;;;;;;;33.00;27.00;;;;;;;;5100889;28;11546;-75
2022/12/03 08:58:34;;;;;;;;;24.75;20.00;;;;;;;;5098764;28;11592;-75
2022/12/03 09:01:32;;;;;;;;;32.50;29.00;;;;;;;;5094041;28;11537;-75
2022/12/03 09:04:30;;;;;;;;;31.50;31.00;;;;;;;;5102028;27;11550;-76
2022/12/03 09:06:58;;;;;;;;;25.25;25.25;;;;;;;;5018433;28;11575;-76
2022/12/03 09:09:26;;;;;;;;;28.75;25.00;;;;;;;;5075666;28;11597;-75
2022/12/03 09:11:54;;;;;;;;;29.25;24.25;;;;;;;;5102208;28;11569;-74
2022/12/03 09:14:22;;;;;;;;;24.25;23.25;;;;;;;;5099348;28;12366;-76
2022/12/03 09:16:54;;;;;;;;;22.75;20.75;;;;;;;;5100903;28;12299;-76
2022/12/03 09:19:21;;;;;;;;;14.25;14.25;;;;;;;;5102744;28;11529;-75
2022/12/03 09:21:51;;;;;;;;;17.00;14.00;;;;;;;;5098853;28;11549;-76
2022/12/03 09:24:18;;;;;;;;;18.25;18.00;;;;;;;;5102040;28;11624;-73
2022/12/03 09:26:46;;;;;;;;;21.25;14.25;;;;;;;;5099895;27;11536;-74
2022/12/03 09:29:13;;;;;;;;;17.75;16.00;;;;;;;;5101386;28;11509;-75
2022/12/03 09:31:41;;;;;;;;;15.00;15.00;;;;;;;;5100833;28;11531;-74
2022/12/03 09:34:10;;;;;;;;;19.00;18.50;;;;;;;;5097879;28;11539;-75
2022/12/03 09:36:38;;;;;;;;;23.00;17.25;;;;;;;;5100022;28;11553;-75
2022/12/03 09:39:06;;;;;;;;;16.50;14.00;;;;;;;;5097940;28;11624;-76
2022/12/03 09:41:33;;;;;;;;;17.75;15.50;;;;;;;;5100710;28;11005;-75
2022/12/03 09:44:02;;;;;;;;;18.00;12.25;;;;;;;;5096397;28;11515;-76
2022/12/03 09:46:30;;;;;;;;;16.50;15.50;;;;;;;;5097636;27;11581;-76
2022/12/03 09:48:58;;;;;;;;;16.25;14.25;;;;;;;;5095328;27;11617;-77
2022/12/03 09:51:30;;;;;;;;;19.00;16.25;;;;;;;;5095747;28;11548;-76
2022/12/03 09:53:59;;;;;;;;;14.00;10.00;;;;;;;;5100043;28;11534;-75
2022/12/03 09:56:27;;;;;;;;;15.00;14.50;;;;;;;;5098501;28;11518;-76
2022/12/03 09:58:54;;;;;;;;;10.00;10.00;;;;;;;;5078213;28;11495;-76
2022/12/03 10:01:22;;;;;;;;;17.50;14.50;;;;;;;;5101419;28;11472;-76
2022/12/03 10:03:51;;;;;;;;;17.25;17.25;;;;;;;;5101870;28;11533;-76
2022/12/03 10:06:20;;;;;;;;;11.25;11.25;;;;;;;;5097996;28;11568;-74
2022/12/03 10:08:50;;;;;;;;;15.50;15.50;;;;;;;;5078728;28;11629;-74
2022/12/03 10:11:19;;;;;;;;;19.25;18.00;;;;;;;;5100914;27;11537;-73
2022/12/03 10:13:47;;;;;;;;;23.00;23.00;;;;;;;;5101959;28;11502;-78
2022/12/03 10:16:22;;;;;;;;;15.50;11.50;;;;;;;;5100346;28;11568;-79
2022/12/03 10:19:09;;;;;;;;;18.00;15.00;;;;;;;;5080437;28;11534;-77
2022/12/03 10:24:29;;;;;;;;;14.00;13.75;;;;;;;;5081473;28;11663;-76
2022/12/03 10:27:02;;;;;;;;;11.00;11.00;;;;;;;;5084419;28;11538;-76
2022/12/03 10:29:31;;;;;;;;;11.50;10.00;;;;;;;;5081550;28;11523;-79
2022/12/03 10:32:00;;;;;;;;;18.00;14.50;;;;;;;;5084331;28;12295;-76
2022/12/03 10:34:30;;;;;;;;;16.50;14.25;;;;;;;;5084909;28;11653;-74
2022/12/03 10:37:16;;;;;;;;;13.75;13.00;;;;;;;;5083047;28;11608;-76
2022/12/03 10:39:56;;;;;;;;;14.25;13.00;;;;;;;;5085962;28;11567;-75
2022/12/03 10:42:24;;;;;;;;;16.50;10.50;;;;;;;;5086204;28;11533;-77
2022/12/03 10:45:08;;;;;;;;;14.75;14.50;;;;;;;;5084438;28;11528;-80
2022/12/03 10:47:35;;;;;;;;;18.25;16.25;;;;;;;;5076207;28;11526;-80
2022/12/03 10:50:06;;;;;;;;;20.75;18.50;;;;;;;;5077907;28;11573;-77
2022/12/03 10:52:33;;;;;;;;;15.25;12.75;;;;;;;;5080525;28;11590;-76
2022/12/03 10:55:02;;;;;;;;;16.75;12.75;;;;;;;;5078860;28;11589;-76
2022/12/03 10:57:29;;;;;;;;;17.50;13.25;;;;;;;;5077773;28;11509;-76
2022/12/03 10:59:57;;;;;;;;;15.00;14.25;;;;;;;;5084861;28;11643;-76
2022/12/03 11:02:25;;;;;;;;;15.25;13.50;;;;;;;;5084492;28;11558;-77
2022/12/03 11:04:52;;;;;;;;;14.75;13.00;;;;;;;;5084913;28;11538;-77
2022/12/03 11:07:23;;;;;;;;;13.00;11.50;;;;;;;;5084673;28;11540;-76
2022/12/03 11:09:53;;;;;;;;;11.00;8.25;;;;;;;;5085688;28;12588;-76
2022/12/03 11:12:23;;;;;;;;;14.50;14.00;;;;;;;;5084286;28;12452;-76
2022/12/03 11:15:05;;;;;;;;;15.25;14.00;;;;;;;;5082796;28;11620;-77
2022/12/03 11:17:47;;;;;;;;;14.25;14.25;;;;;;;;5082906;28;11537;-77
2022/12/03 11:20:47;;;;;;;;;18.25;15.00;;;;;;;;5083949;28;11562;-76
2022/12/03 11:23:15;;;;;;;;;14.25;11.75;;;;;;;;5076826;28;11614;-77
2022/12/03 11:25:51;;;;;;;;;13.50;11.25;;;;;;;;5084156;28;11603;-76
2022/12/03 11:28:38;;;;;;;;;11.25;11.25;;;;;;;;5083439;28;11696;-76
2022/12/03 11:31:13;;;;;;;;;19.00;15.00;;;;;;;;5084417;28;11555;-76
2022/12/03 11:33:43;;;;;;;;;17.00;17.00;;;;;;;;5088602;28;11571;-75
2022/12/03 11:36:16;;;;;;;;;12.25;12.25;;;;;;;;5083035;28;11550;-76
2022/12/03 11:38:52;;;;;;;;;15.25;13.50;;;;;;;;5084615;28;11535;-76
2022/12/03 11:41:22;;;;;;;;;15.00;13.50;;;;;;;;5081966;28;12447;-76
2022/12/03 11:44:01;;;;;;;;;13.00;12.00;;;;;;;;5084436;28;10982;-76
2022/12/03 11:46:38;;;;;;;;;16.75;16.75;;;;;;;;5083221;28;11549;-75
2022/12/03 11:49:28;;;;;;;;;15.00;11.00;;;;;;;;5080330;28;11562;-76
2022/12/03 11:51:55;;;;;;;;;14.50;14.50;;;;;;;;5083700;28;11673;-77
2022/12/03 11:54:23;;;;;;;;;13.00;13.00;;;;;;;;5083593;28;11529;-75
2022/12/03 11:56:52;;;;;;;;;18.00;17.50;;;;;;;;5083745;28;11523;-75
2022/12/03 11:59:21;;;;;;;;;15.00;14.25;;;;;;;;5079770;28;11601;-76
2022/12/03 12:01:49;;;;;;;;;14.00;14.00;;;;;;;;5080647;28;12346;-76
2022/12/03 12:04:34;;;;;;;;;15.00;11.75;;;;;;;;5082602;28;11962;-76
2022/12/03 12:07:02;;;;;;;;;14.75;13.00;;;;;;;;5082812;28;11501;-76
2022/12/03 12:09:49;;;;;;;;;14.00;11.00;;;;;;;;5082756;28;11596;-76
2022/12/03 12:12:21;;;;;;;;;9.75;9.75;;;;;;;;5082035;28;11534;-76
2022/12/03 12:14:50;;;;;;;;;15.75;13.25;;;;;;;;5083654;28;11510;-76
2022/12/03 12:17:35;;;;;;;;;18.50;18.00;;;;;;;;5083235;28;11514;-76
2022/12/03 12:20:25;;;;;;;;;16.25;10.00;;;;;;;;5082377;28;11644;-76
2022/12/03 12:22:53;;;;;;;;;14.75;14.75;;;;;;;;5078519;28;11529;-76
2022/12/03 12:25:39;;;;;;;;;14.25;14.00;;;;;;;;5083567;28;12429;-76
2022/12/03 12:28:07;;;;;;;;;19.75;18.25;;;;;;;;5083029;28;11612;-76
2022/12/03 12:30:36;;;;;;;;;22.75;19.50;;;;;;;;5073912;28;11618;-74
2022/12/03 12:33:15;;;;;;;;;23.00;22.00;;;;;;;;5083868;28;11537;-75
2022/12/03 12:35:42;;;;;;;;;23.50;14.75;;;;;;;;5083647;28;12470;-75
2022/12/03 12:38:15;;;;;;;;;19.25;17.75;;;;;;;;5083848;28;11570;-75
2022/12/03 12:40:45;;;;;;;;;10.75;10.75;;;;;;;;5080887;28;11619;-76
2022/12/03 12:43:21;;;;;;;;;14.75;14.75;;;;;;;;5080933;28;11536;-77
2022/12/03 12:45:51;;;;;;;;;17.25;17.00;;;;;;;;5082245;28;12432;-76
2022/12/03 12:48:27;;;;;;;;;19.50;12.25;;;;;;;;5081936;28;11578;-77
2022/12/03 12:50:59;;;;;;;;;15.00;12.00;;;;;;;;5080462;28;11532;-77
2022/12/03 12:53:28;;;;;;;;;15.50;14.00;;;;;;;;5081208;28;11537;-76
2022/12/03 12:55:57;;;;;;;;;17.50;14.00;;;;;;;;5074190;28;12396;-75
2022/12/03 12:58:25;;;;;;;;;16.00;14.50;;;;;;;;5079685;28;11545;-75
2022/12/03 13:00:57;;;;;;;;;14.25;12.00;;;;;;;;5079432;28;12499;-76
2022/12/03 13:03:27;;;;;;;;;15.00;15.00;;;;;;;;5080503;28;11545;-76
2022/12/03 13:05:56;;;;;;;;;20.00;17.50;;;;;;;;5080841;28;11536;-75
2022/12/03 13:08:26;;;;;;;;;16.25;16.25;;;;;;;;5079805;28;11564;-77
2022/12/03 13:10:55;;;;;;;;;17.75;15.50;;;;;;;;5081104;28;11640;-76
2022/12/03 13:13:31;;;;;;;;;20.25;16.50;;;;;;;;5080525;28;11550;-76
2022/12/03 13:16:05;;;;;;;;;17.25;13.50;;;;;;;;5079597;28;11573;-76
2022/12/03 13:18:45;;;;;;;;;16.75;16.75;;;;;;;;5077233;28;11521;-76
2022/12/03 13:21:25;;;;;;;;;23.00;19.00;;;;;;;;5077996;28;11925;-76
2022/12/03 13:23:55;;;;;;;;;22.00;20.75;;;;;;;;5080808;28;11668;-77
2022/12/03 13:26:25;;;;;;;;;17.75;15.25;;;;;;;;5072283;28;12323;-76
2022/12/03 13:28:53;;;;;;;;;18.50;15.00;;;;;;;;5070831;28;11674;-77
2022/12/03 13:31:31;;;;;;;;;18.25;13.00;;;;;;;;5081093;28;11587;-77
2022/12/03 13:34:00;;;;;;;;;19.50;14.75;;;;;;;;5082827;28;11646;-77
2022/12/03 13:36:36;;;;;;;;;18.00;14.25;;;;;;;;5074025;28;11521;-76
2022/12/03 13:39:13;;;;;;;;;14.00;14.00;;;;;;;;5075041;28;11587;-77
2022/12/03 13:44:27;;;;;;;;;16.00;14.75;;;;;;;;5079109;28;11829;-77
2022/12/03 13:46:56;;;;;;;;;14.25;13.50;;;;;;;;5076334;28;11058;-76
2022/12/03 13:49:24;;;;;;;;;12.00;12.00;;;;;;;;5078910;28;11568;-76
2022/12/03 13:51:52;;;;;;;;;18.25;15.50;;;;;;;;5073499;28;11548;-76
2022/12/03 13:54:21;;;;;;;;;12.25;12.25;;;;;;;;5079843;28;11570;-76
2022/12/03 13:56:49;;;;;;;;;15.50;14.00;;;;;;;;5080125;28;11522;-75
2022/12/03 13:59:16;;;;;;;;;15.50;15.50;;;;;;;;5073254;28;11550;-75
2022/12/03 14:01:44;;;;;;;;;14.25;14.25;;;;;;;;5079496;28;12325;-76
2022/12/03 14:04:13;;;;;;;;;11.25;9.00;;;;;;;;5082274;28;11587;-75
2022/12/03 14:06:41;;;;;;;;;19.50;19.00;;;;;;;;5076079;28;11512;-76
2022/12/03 14:09:08;;;;;;;;;21.25;19.00;;;;;;;;5076058;28;11642;-76
2022/12/03 14:14:20;;;;;;;;;18.00;18.00;;;;;;;;5078611;28;12012;-76
2022/12/03 14:16:48;;;;;;;;;13.50;11.50;;;;;;;;5075829;28;11677;-76
2022/12/03 14:19:17;;;;;;;;;17.25;17.25;;;;;;;;5082392;28;11629;-76
2022/12/03 14:21:45;;;;;;;;;18.50;15.25;;;;;;;;5083703;28;11535;-76
2022/12/03 14:24:12;;;;;;;;;14.00;14.00;;;;;;;;5083488;28;11677;-76
2022/12/03 14:26:40;;;;;;;;;15.50;15.50;;;;;;;;5084359;28;11610;-76
2022/12/03 14:29:07;;;;;;;;;22.25;18.00;;;;;;;;5084626;28;10989;-76
2022/12/03 14:31:35;;;;;;;;;16.75;15.50;;;;;;;;5076331;28;11653;-76
2022/12/03 14:34:02;;;;;;;;;11.75;11.75;;;;;;;;5082111;28;12363;-76
2022/12/03 14:36:34;;;;;;;;;15.75;12.50;;;;;;;;5077321;28;11534;-76
2022/12/03 14:39:02;;;;;;;;;15.75;15.75;;;;;;;;5084238;28;11492;-76
2022/12/03 14:44:15;;;;;;;;;18.25;15.25;;;;;;;;5076676;28;11511;-76
2022/12/03 14:46:43;;;;;;;;;22.50;20.75;;;;;;;;5081551;28;11788;-76
2022/12/03 14:49:10;;;;;;;;;19.75;15.50;;;;;;;;5082277;28;11564;-76
2022/12/03 14:51:39;;;;;;;;;18.50;18.50;;;;;;;;5080898;28;11564;-76
2022/12/03 14:54:07;;;;;;;;;15.50;15.50;;;;;;;;5082875;28;11519;-75
2022/12/03 14:56:35;;;;;;;;;16.50;15.25;;;;;;;;5079011;28;11571;-76
2022/12/03 14:59:02;;;;;;;;;21.25;20.25;;;;;;;;5075944;28;11561;-76
2022/12/03 15:01:30;;;;;;;;;19.75;18.00;;;;;;;;5082415;28;11540;-76